Time;durP1;ratioP1;P1;durP2;ratioP2;P2;SDS_P1;SDS_P2;PMS_P1;PMS_P2;Temp;Humidity;BMP_temperature;BMP_pressure;BME280_temperature;BME280_humidity;BME280_pressure;Samples;Min_cycle;Max_cycle;Signal;HPM_P1;HPM_P2
2022/04/19 00:00:33;;;;;;;14.52;6.80;;;7.10;85.10;;;;;;4957174;28;20082;-71
2022/04/19 00:03:02;;;;;;;21.05;7.50;;;7.20;85.10;;;;;;4940153;29;20043;-71
2022/04/19 00:05:32;;;;;;;17.48;6.88;;;7.20;85.00;;;;;;4940142;29;20493;-71
2022/04/19 00:08:00;;;;;;;10.98;6.57;;;7.10;84.90;;;;;;4940110;29;20428;-71
2022/04/19 00:10:28;;;;;;;17.17;7.03;;;7.20;84.90;;;;;;4940241;29;20409;-71
2022/04/19 00:12:57;;;;;;;18.42;7.25;;;7.20;84.90;;;;;;4956770;28;20066;-71
2022/04/19 00:15:29;;;;;;;15.25;7.10;;;7.20;84.90;;;;;;4957007;29;20052;-71
2022/04/19 00:18:01;;;;;;;12.70;6.45;;;7.30;84.80;;;;;;4956874;29;20047;-72
2022/04/19 00:20:30;;;;;;;12.40;6.45;;;7.30;84.70;;;;;;4938914;29;20677;-71
2022/04/19 00:22:57;;;;;;;10.75;7.05;;;7.30;84.60;;;;;;4956459;28;20501;-71
2022/04/19 00:25:25;;;;;;;12.63;6.40;;;7.30;84.50;;;;;;4956741;28;20043;-71
2022/04/19 00:27:53;;;;;;;16.52;7.28;;;7.40;84.40;;;;;;4956635;29;20059;-71
2022/04/19 00:30:21;;;;;;;11.88;6.93;;;7.40;84.40;;;;;;4939440;29;20512;-71
2022/04/19 00:32:48;;;;;;;13.90;7.07;;;7.30;84.40;;;;;;4938757;29;20051;-71
2022/04/19 00:35:16;;;;;;;12.30;6.80;;;7.30;84.40;;;;;;4939512;29;20062;-71
2022/04/19 00:37:44;;;;;;;11.73;6.68;;;7.30;84.40;;;;;;4955683;28;20043;-71
2022/04/19 00:40:11;;;;;;;18.02;6.82;;;7.30;84.40;;;;;;4939660;29;20063;-71
2022/04/19 00:42:39;;;;;;;15.25;6.55;;;7.30;84.50;;;;;;4955264;28;20140;-72
2022/04/19 00:45:07;;;;;;;12.77;6.07;;;7.20;84.50;;;;;;4956705;28;20474;-71
2022/04/19 00:47:38;;;;;;;11.50;6.55;;;7.10;84.60;;;;;;4939203;29;20047;-70
2022/04/19 00:50:08;;;;;;;14.65;6.60;;;6.90;84.70;;;;;;4939318;28;20050;-71
2022/04/19 00:52:37;;;;;;;13.73;6.93;;;6.80;84.90;;;;;;4956358;29;20505;-71
2022/04/19 00:55:08;;;;;;;15.48;6.72;;;6.80;85.00;;;;;;4939219;29;20062;-71
2022/04/19 00:57:41;;;;;;;11.93;6.93;;;6.80;85.00;;;;;;4939691;29;20412;-71
2022/04/19 01:00:12;;;;;;;15.23;7.80;;;6.70;85.00;;;;;;4921582;29;20058;-71
2022/04/19 01:02:56;;;;;;;16.50;7.72;;;6.60;85.10;;;;;;4937049;29;20051;-71
2022/04/19 01:05:26;;;;;;;18.30;7.97;;;6.50;85.20;;;;;;4921807;29;20409;-71
2022/04/19 01:07:54;;;;;;;13.32;7.22;;;6.40;85.40;;;;;;4937044;29;20055;-71
2022/04/19 01:10:29;;;;;;;17.63;7.85;;;6.30;85.50;;;;;;4936942;29;20046;-71
2022/04/19 01:15:50;;;;;;;16.25;8.23;;;6.00;85.80;;;;;;4938766;29;20055;-71
2022/04/19 01:18:20;;;;;;;20.13;8.13;;;6.00;85.90;;;;;;4938804;29;20055;-71
2022/04/19 01:20:50;;;;;;;26.08;8.68;;;5.80;86.10;;;;;;4922749;29;20054;-71
2022/04/19 01:23:20;;;;;;;22.30;8.77;;;5.70;86.10;;;;;;4938636;29;20059;-71
2022/04/19 01:25:48;;;;;;;19.27;8.57;;;5.70;86.30;;;;;;4922821;29;20413;-71
2022/04/19 01:28:18;;;;;;;18.20;9.70;;;5.50;86.40;;;;;;4938669;29;20058;-71
2022/04/19 01:30:52;;;;;;;24.25;9.32;;;5.40;86.60;;;;;;4938791;29;20050;-70
2022/04/19 01:33:23;;;;;;;20.85;9.13;;;5.30;86.70;;;;;;4940272;29;20058;-70
2022/04/19 01:35:53;;;;;;;17.15;8.80;;;5.30;86.80;;;;;;4940165;29;20051;-71
2022/04/19 01:38:22;;;;;;;22.40;8.82;;;5.30;86.90;;;;;;4955647;28;20401;-71
2022/04/19 01:40:50;;;;;;;25.98;9.52;;;5.20;86.90;;;;;;4938305;29;20050;-70
2022/04/19 01:43:44;;;;;;;14.30;8.75;;;5.10;86.90;;;;;;4951733;28;20063;-70
2022/04/19 01:46:15;;;;;;;17.92;9.30;;;4.90;87.10;;;;;;4937472;29;20055;-71
2022/04/19 01:48:42;;;;;;;16.95;7.90;;;4.90;87.10;;;;;;4936864;29;20051;-71
2022/04/19 01:51:12;;;;;;;15.65;8.32;;;4.80;87.20;;;;;;4955421;28;20051;-70
2022/04/19 01:53:40;;;;;;;21.63;9.55;;;4.80;87.30;;;;;;4938120;29;20054;-70
2022/04/19 01:56:09;;;;;;;19.80;8.75;;;4.70;87.50;;;;;;4937825;29;20054;-70
2022/04/19 01:59:06;;;;;;;19.77;9.65;;;4.60;87.50;;;;;;4941697;29;20055;-70
2022/04/19 02:02:06;;;;;;;17.63;9.07;;;4.60;87.50;;;;;;4937659;29;20066;-70
2022/04/19 02:04:34;;;;;;;17.65;9.85;;;4.40;87.50;;;;;;4933679;29;20048;-70
2022/04/19 02:07:04;;;;;;;17.27;10.18;;;4.30;87.60;;;;;;4919051;29;20052;-70
2022/04/19 02:09:32;;;;;;;25.45;10.07;;;4.30;87.70;;;;;;4916837;29;20055;-71
2022/04/19 02:12:04;;;;;;;22.80;9.68;;;4.30;87.90;;;;;;4918875;29;20375;-71
2022/04/19 02:15:02;;;;;;;27.02;11.27;;;4.30;88.20;;;;;;4839893;29;20066;-71
2022/04/19 02:17:30;;;;;;;26.33;10.07;;;4.30;88.10;;;;;;4839980;29;20049;-71
2022/04/19 02:20:04;;;;;;;29.92;10.45;;;4.30;88.10;;;;;;4839745;29;20070;-70
2022/04/19 02:22:32;;;;;;;29.75;10.35;;;4.30;88.10;;;;;;4839961;29;20536;-70
2022/04/19 02:25:00;;;;;;;30.52;10.18;;;4.30;88.10;;;;;;4839654;29;20057;-70
2022/04/19 02:27:31;;;;;;;21.63;10.02;;;4.30;88.00;;;;;;4824475;29;20150;-70
2022/04/19 02:30:05;;;;;;;31.83;9.15;;;4.20;88.10;;;;;;4824674;29;20050;-70
2022/04/19 02:32:34;;;;;;;18.80;9.05;;;4.20;88.20;;;;;;4839634;29;20497;-70
2022/04/19 02:35:02;;;;;;;17.95;9.45;;;4.10;88.20;;;;;;4824510;29;20505;-70
2022/04/19 02:37:32;;;;;;;21.65;10.18;;;4.00;88.40;;;;;;4824149;29;20054;-70
2022/04/19 02:40:01;;;;;;;15.43;9.18;;;4.10;88.60;;;;;;4824117;29;20050;-70
2022/04/19 02:42:29;;;;;;;21.73;10.57;;;4.00;88.50;;;;;;4839650;29;20069;-71
2022/04/19 02:44:57;;;;;;;23.38;9.40;;;4.10;88.50;;;;;;4838618;29;20381;-70
2022/04/19 02:47:24;;;;;;;21.65;9.45;;;4.00;88.40;;;;;;4824434;29;20096;-70
2022/04/19 02:49:52;;;;;;;22.13;9.93;;;4.00;88.40;;;;;;4824581;29;20065;-70
2022/04/19 02:52:20;;;;;;;26.63;10.00;;;4.00;88.40;;;;;;4915938;29;20063;-70
2022/04/19 02:54:47;;;;;;;19.55;9.32;;;3.90;88.50;;;;;;4918066;29;20047;-71
2022/04/19 02:57:15;;;;;;;21.83;9.50;;;3.90;88.60;;;;;;4902919;29;20493;-70
2022/04/19 02:59:43;;;;;;;22.42;9.77;;;3.80;88.60;;;;;;4917946;29;20048;-70
2022/04/19 03:02:11;;;;;;;23.20;9.20;;;3.80;88.80;;;;;;4918376;29;20043;-70
2022/04/19 03:04:38;;;;;;;23.00;8.98;;;3.80;88.90;;;;;;4902358;29;20055;-70
2022/04/19 03:07:07;;;;;;;20.05;9.82;;;3.80;88.80;;;;;;4917976;29;20052;-70
2022/04/19 03:09:35;;;;;;;22.33;8.20;;;3.80;88.80;;;;;;4917822;29;20513;-70
2022/04/19 03:12:03;;;;;;;22.13;8.98;;;3.80;88.80;;;;;;4934951;29;20513;-70
2022/04/19 03:14:30;;;;;;;22.95;8.65;;;3.70;88.80;;;;;;4933725;29;20051;-70
2022/04/19 03:16:58;;;;;;;25.55;8.68;;;3.70;88.70;;;;;;4918003;29;20056;-70
2022/04/19 03:19:26;;;;;;;23.42;8.88;;;3.50;88.70;;;;;;4917741;29;20058;-70
2022/04/19 03:21:53;;;;;;;18.13;9.05;;;3.50;88.80;;;;;;4917898;29;20043;-70
2022/04/19 03:29:53;;;;;;;12.80;6.93;;;3.30;89.20;;;;;;4917962;29;20044;-71
2022/04/19 03:32:23;;;;;;;20.98;8.13;;;3.30;89.10;;;;;;4909799;29;20043;-71
2022/04/19 03:34:53;;;;;;;14.88;7.55;;;3.30;89.00;;;;;;4936531;29;20397;-71
2022/04/19 03:37:20;;;;;;;14.43;7.65;;;3.20;89.00;;;;;;4936689;29;20401;-71
2022/04/19 03:39:48;;;;;;;14.48;7.35;;;3.20;89.00;;;;;;4936964;29;20226;-71
2022/04/19 03:42:16;;;;;;;25.63;8.38;;;3.20;89.20;;;;;;4932540;29;20056;-70
2022/04/19 03:44:44;;;;;;;14.95;7.30;;;3.10;89.20;;;;;;4917481;29;20047;-70
2022/04/19 03:47:12;;;;;;;15.40;8.15;;;3.00;89.30;;;;;;4918199;29;20060;-71
2022/04/19 03:49:41;;;;;;;13.88;7.25;;;3.00;89.30;;;;;;4902006;29;20063;-71
2022/04/19 03:52:10;;;;;;;19.60;7.13;;;3.00;89.30;;;;;;4933990;29;20055;-71
2022/04/19 03:54:41;;;;;;;16.40;7.78;;;2.90;89.30;;;;;;4911462;29;20544;-70
2022/04/19 03:57:09;;;;;;;14.02;6.97;;;2.80;89.40;;;;;;4936638;29;20047;-70
2022/04/19 03:59:38;;;;;;;16.75;7.22;;;2.80;89.50;;;;;;4953706;28;20062;-71
2022/04/19 04:02:08;;;;;;;12.63;6.68;;;2.80;89.40;;;;;;4935639;29;20062;-71
2022/04/19 04:04:37;;;;;;;15.93;7.53;;;2.80;89.40;;;;;;4936462;29;20524;-71
2022/04/19 04:07:06;;;;;;;16.90;7.95;;;2.80;89.50;;;;;;4936407;29;20058;-70
2022/04/19 04:09:36;;;;;;;15.98;8.25;;;2.80;89.50;;;;;;4936452;29;20062;-70
2022/04/19 04:12:09;;;;;;;13.68;6.97;;;2.80;89.60;;;;;;4920148;29;20051;-70
2022/04/19 04:14:40;;;;;;;16.92;7.30;;;2.70;89.60;;;;;;4939692;28;20062;-70
2022/04/19 04:17:09;;;;;;;14.75;7.72;;;2.70;89.50;;;;;;4939977;29;20054;-70
2022/04/19 04:19:37;;;;;;;14.30;7.32;;;2.70;89.60;;;;;;4923618;29;20051;-70
2022/04/19 04:22:05;;;;;;;13.65;7.18;;;2.70;89.60;;;;;;4939820;29;20071;-70
2022/04/19 04:24:32;;;;;;;17.15;7.38;;;2.70;89.50;;;;;;4939774;29;20062;-70
2022/04/19 04:27:00;;;;;;;15.10;7.30;;;2.70;89.60;;;;;;4939978;28;20397;-70
2022/04/19 04:29:30;;;;;;;14.10;6.72;;;2.70;89.50;;;;;;4939726;29;20058;-70
2022/04/19 04:31:57;;;;;;;19.02;7.00;;;2.60;89.50;;;;;;4939204;29;20050;-70
2022/04/19 04:34:25;;;;;;;11.43;6.22;;;2.50;89.40;;;;;;4923776;29;20050;-70
2022/04/19 04:36:54;;;;;;;14.52;7.18;;;2.50;89.50;;;;;;4939574;29;20047;-70
2022/04/19 04:39:23;;;;;;;11.93;6.63;;;2.50;89.50;;;;;;4939561;29;20043;-70
2022/04/19 04:42:09;;;;;;;14.50;6.30;;;2.50;89.80;;;;;;4956556;28;20047;-70
2022/04/19 04:44:37;;;;;;;11.57;6.20;;;2.50;90.00;;;;;;4939335;29;20051;-70
2022/04/19 04:49:52;;;;;;;23.10;8.10;;;2.60;89.80;;;;;;4938613;28;20055;-70
2022/04/19 04:52:20;;;;;;;32.00;9.00;;;2.70;89.80;;;;;;4939242;29;20050;-70
2022/04/19 04:54:50;;;;;;;30.80;8.30;;;2.70;89.80;;;;;;4939517;29;20051;-71
2022/04/19 04:57:30;;;;;;;21.42;7.28;;;2.70;89.80;;;;;;4939488;29;20405;-71
2022/04/19 04:59:58;;;;;;;24.33;7.13;;;2.70;89.80;;;;;;4938511;29;20059;-71
2022/04/19 05:02:27;;;;;;;20.88;6.60;;;2.70;89.80;;;;;;4923804;29;20055;-70
2022/04/19 05:04:55;;;;;;;19.02;6.15;;;2.70;89.80;;;;;;4955998;29;20050;-70
2022/04/19 05:07:23;;;;;;;18.08;5.57;;;2.80;89.60;;;;;;4923108;29;20053;-70
2022/04/19 05:10:00;;;;;;;21.02;6.38;;;2.70;89.60;;;;;;4939297;29;20047;-70
2022/04/19 05:12:31;;;;;;;25.05;6.85;;;2.70;89.60;;;;;;4939037;29;20528;-70
2022/04/19 05:15:00;;;;;;;23.15;5.82;;;2.70;89.70;;;;;;4938898;29;20062;-70
2022/04/19 05:17:34;;;;;;;15.00;5.30;;;2.70;89.80;;;;;;4938931;29;20401;-70
2022/04/19 05:20:03;;;;;;;17.70;5.45;;;2.70;89.90;;;;;;4923264;29;20047;-70
2022/04/19 05:22:35;;;;;;;19.02;5.15;;;2.70;89.90;;;;;;4922628;29;20051;-70
2022/04/19 05:25:06;;;;;;;14.57;4.90;;;2.70;89.90;;;;;;4938927;29;20047;-70
2022/04/19 05:27:34;;;;;;;14.10;4.47;;;2.70;89.90;;;;;;4938796;28;20043;-70
2022/04/19 05:30:03;;;;;;;14.52;5.05;;;2.60;89.80;;;;;;4938810;29;20052;-71
2022/04/19 05:32:31;;;;;;;14.80;4.38;;;2.60;89.80;;;;;;4938558;29;20051;-70
2022/04/19 05:34:58;;;;;;;13.27;5.40;;;2.60;89.90;;;;;;4939892;29;20059;-70
2022/04/19 05:37:26;;;;;;;20.70;5.10;;;2.60;90.00;;;;;;4938600;29;20051;-70
2022/04/19 05:39:53;;;;;;;14.93;5.28;;;2.60;90.20;;;;;;4955585;28;20059;-70
2022/04/19 05:42:22;;;;;;;21.52;6.35;;;2.60;90.10;;;;;;4938280;29;20058;-71
2022/04/19 05:44:51;;;;;;;10.80;5.40;;;2.60;90.00;;;;;;4938133;29;20051;-71
2022/04/19 05:47:19;;;;;;;13.82;5.45;;;2.60;90.10;;;;;;4922168;29;20062;-71
2022/04/19 05:49:47;;;;;;;12.55;5.68;;;2.70;90.10;;;;;;4954405;29;20055;-70
2022/04/19 05:52:14;;;;;;;14.55;6.47;;;2.70;90.10;;;;;;4938289;29;20056;-71
2022/04/19 05:54:45;;;;;;;14.35;5.85;;;2.70;90.10;;;;;;4937602;29;20047;-70
2022/04/19 05:57:14;;;;;;;11.02;6.20;;;2.70;90.10;;;;;;4938244;29;20058;-70
2022/04/19 05:59:42;;;;;;;16.70;7.85;;;2.80;90.10;;;;;;4938146;29;20054;-70
2022/04/19 06:04:59;;;;;;;15.82;7.63;;;2.80;90.10;;;;;;4938073;29;20055;-70
2022/04/19 06:07:31;;;;;;;12.50;6.45;;;3.00;90.10;;;;;;4937775;29;20042;-70
2022/04/19 06:10:08;;;;;;;13.93;6.32;;;3.00;90.00;;;;;;4937773;29;20065;-70
2022/04/19 06:12:38;;;;;;;17.63;6.18;;;3.10;90.00;;;;;;4937940;29;20043;-70
2022/04/19 06:15:07;;;;;;;12.07;6.30;;;3.20;90.00;;;;;;4937662;29;20054;-70
2022/04/19 06:17:37;;;;;;;19.88;7.20;;;3.30;89.90;;;;;;4921638;28;20417;-70
2022/04/19 06:20:15;;;;;;;20.25;7.22;;;3.40;89.90;;;;;;4937694;29;20046;-71
2022/04/19 06:22:44;;;;;;;21.90;7.15;;;3.50;89.80;;;;;;4937740;29;20047;-70
2022/04/19 06:25:15;;;;;;;20.00;6.80;;;3.70;89.80;;;;;;4937677;29;20054;-70
2022/04/19 06:27:43;;;;;;;17.15;6.93;;;3.80;89.80;;;;;;4937222;28;20293;-70
2022/04/19 06:30:12;;;;;;;18.10;6.50;;;4.00;89.80;;;;;;4937538;29;20140;-70
2022/04/19 06:32:42;;;;;;;19.00;6.82;;;4.20;89.70;;;;;;4937681;29;20047;-70
2022/04/19 06:35:11;;;;;;;17.15;6.57;;;4.40;89.60;;;;;;4921022;29;20528;-70
2022/04/19 06:37:38;;;;;;;20.52;6.72;;;4.50;89.50;;;;;;4937166;29;20055;-70
2022/04/19 06:40:11;;;;;;;13.23;6.40;;;4.70;89.40;;;;;;4936655;28;20054;-70
2022/04/19 06:42:40;;;;;;;18.98;6.38;;;4.80;89.30;;;;;;4906248;29;20055;-71
2022/04/19 06:45:25;;;;;;;17.73;6.30;;;5.00;89.30;;;;;;4937344;29;20055;-71
2022/04/19 06:47:57;;;;;;;20.00;7.35;;;5.20;89.20;;;;;;4937514;29;20047;-71
2022/04/19 06:50:26;;;;;;;18.60;6.95;;;5.30;89.10;;;;;;4937236;29;20051;-70
2022/04/19 06:52:59;;;;;;;16.73;6.95;;;5.40;89.00;;;;;;4922259;29;20035;-70
2022/04/19 06:55:49;;;;;;;24.77;7.10;;;5.50;88.90;;;;;;4954184;28;20054;-70
2022/04/19 06:58:18;;;;;;;15.00;6.57;;;5.60;88.80;;;;;;4937071;29;20043;-70
2022/04/19 07:00:46;;;;;;;13.57;6.22;;;5.70;88.70;;;;;;4936913;29;20054;-71
2022/04/19 07:03:14;;;;;;;12.02;6.93;;;5.80;88.60;;;;;;4936758;29;20055;-70
2022/04/19 07:06:06;;;;;;;20.08;6.95;;;5.90;88.50;;;;;;4948440;28;20385;-70
2022/04/19 07:08:34;;;;;;;12.88;6.68;;;6.10;88.40;;;;;;4937081;29;20059;-70
2022/04/19 07:11:01;;;;;;;13.60;6.80;;;6.10;88.30;;;;;;4937473;29;20047;-70
2022/04/19 07:13:45;;;;;;;15.82;6.82;;;6.20;88.20;;;;;;4936780;29;20047;-70
2022/04/19 07:16:30;;;;;;;22.45;8.18;;;6.20;88.10;;;;;;4923639;29;20492;-70
2022/04/19 07:18:58;;;;;;;14.55;7.95;;;6.30;88.00;;;;;;4937806;29;20044;-70
2022/04/19 07:27:24;;;;;;;20.58;10.55;;;6.60;87.80;;;;;;4937145;29;20491;-70
2022/04/19 07:29:52;;;;;;;15.13;7.78;;;6.70;87.60;;;;;;4921122;29;20051;-69
2022/04/19 07:32:20;;;;;;;23.75;8.85;;;6.80;87.50;;;;;;4953859;28;20047;-70
2022/04/19 07:34:57;;;;;;;20.55;9.35;;;6.80;87.30;;;;;;4936860;29;20039;-70
2022/04/19 07:37:24;;;;;;;20.27;9.55;;;7.00;87.20;;;;;;4954074;29;20513;-71
2022/04/19 07:39:53;;;;;;;21.20;9.18;;;7.10;87.10;;;;;;4936304;29;20047;-70
2022/04/19 07:42:21;;;;;;;17.88;9.32;;;7.20;87.00;;;;;;4921025;29;20051;-71
2022/04/19 07:44:50;;;;;;;26.45;9.75;;;7.30;86.90;;;;;;4936623;28;20047;-70
2022/04/19 07:47:19;;;;;;;17.67;9.10;;;7.50;86.70;;;;;;4924120;29;20051;-70
2022/04/19 07:49:49;;;;;;;18.10;9.05;;;7.60;86.40;;;;;;4924374;29;20066;-70
2022/04/19 07:52:17;;;;;;;20.08;9.60;;;7.80;86.20;;;;;;4940449;29;20044;-70
2022/04/19 07:54:45;;;;;;;18.85;9.82;;;7.90;85.90;;;;;;4940228;29;20051;-70
2022/04/19 07:57:13;;;;;;;22.90;10.85;;;8.00;85.60;;;;;;4940077;28;20065;-70
2022/04/19 07:59:40;;;;;;;24.27;10.55;;;8.10;85.30;;;;;;4924760;28;20508;-70
2022/04/19 08:02:09;;;;;;;18.92;11.00;;;8.20;85.00;;;;;;4940302;29;20222;-71
2022/04/19 08:04:37;;;;;;;21.83;10.07;;;8.30;84.80;;;;;;4940068;29;20055;-70
2022/04/19 08:07:05;;;;;;;20.98;10.13;;;8.40;84.50;;;;;;4940136;29;20047;-70
2022/04/19 08:09:33;;;;;;;22.67;10.48;;;8.50;84.00;;;;;;4939785;29;20070;-70
2022/04/19 08:12:01;;;;;;;22.30;10.95;;;8.50;83.80;;;;;;4939702;28;20051;-71
2022/04/19 08:14:28;;;;;;;18.85;10.85;;;8.60;83.40;;;;;;4940009;29;20058;-70
2022/04/19 08:16:56;;;;;;;17.55;10.73;;;8.60;83.30;;;;;;4924067;29;20051;-70
2022/04/19 08:19:24;;;;;;;19.58;10.48;;;8.80;83.20;;;;;;4940033;29;20050;-71
2022/04/19 08:21:52;;;;;;;20.27;10.70;;;8.80;83.10;;;;;;4939939;29;20059;-70
2022/04/19 08:24:21;;;;;;;20.17;10.05;;;8.80;82.70;;;;;;4939788;28;20046;-70
2022/04/19 08:26:50;;;;;;;20.55;9.60;;;8.90;82.30;;;;;;4939782;29;20058;-70
2022/04/19 08:29:17;;;;;;;17.88;9.15;;;8.90;82.10;;;;;;4939470;29;20051;-71
2022/04/19 08:31:46;;;;;;;17.08;9.10;;;8.90;81.80;;;;;;4939888;29;20043;-71
2022/04/19 08:34:14;;;;;;;19.52;8.32;;;8.90;81.60;;;;;;4939184;29;20058;-71
2022/04/19 08:36:43;;;;;;;15.63;8.38;;;9.00;81.20;;;;;;4924266;29;20043;-71
2022/04/19 08:39:11;;;;;;;17.52;8.35;;;9.00;80.90;;;;;;4956023;28;20393;-71
2022/04/19 08:41:43;;;;;;;20.55;7.35;;;9.10;80.70;;;;;;4939334;29;20047;-70
2022/04/19 08:44:11;;;;;;;15.60;7.33;;;9.20;80.50;;;;;;4939559;29;20051;-70
2022/04/19 08:46:39;;;;;;;11.43;6.85;;;9.30;80.20;;;;;;4956539;29;20058;-71
2022/04/19 08:49:09;;;;;;;14.93;7.00;;;9.40;79.70;;;;;;4956603;29;20051;-71
2022/04/19 08:51:39;;;;;;;8.98;5.88;;;9.50;79.30;;;;;;4956443;28;20058;-69
2022/04/19 08:59:40;;;;;;;13.48;6.50;;;9.90;77.30;;;;;;4939490;29;20062;-71
2022/04/19 09:02:19;;;;;;;13.63;6.50;;;10.00;77.20;;;;;;4956589;28;20343;-71
2022/04/19 09:04:52;;;;;;;13.75;4.80;;;10.20;77.30;;;;;;4940107;29;20505;-70
2022/04/19 09:07:34;;;;;;;8.77;4.25;;;10.30;76.90;;;;;;4939959;29;20489;-70
2022/04/19 09:10:06;;;;;;;8.55;3.50;;;10.50;75.90;;;;;;4939016;28;20490;-71
2022/04/19 09:12:34;;;;;;;14.32;4.55;;;10.60;75.30;;;;;;4956008;29;20043;-70
2022/04/19 09:15:06;;;;;;;13.27;5.57;;;10.70;74.60;;;;;;4937848;29;20059;-71
2022/04/19 09:17:40;;;;;;;12.55;5.85;;;10.80;74.10;;;;;;4956180;29;20473;-71
2022/04/19 09:20:19;;;;;;;13.20;5.75;;;11.00;74.00;;;;;;4955828;28;20050;-71
2022/04/19 09:22:51;;;;;;;11.57;5.72;;;11.10;72.80;;;;;;4938639;29;20383;-71
2022/04/19 09:25:24;;;;;;;12.32;5.85;;;11.10;73.10;;;;;;4955609;29;20136;-70
2022/04/19 09:27:56;;;;;;;16.23;6.65;;;11.30;72.60;;;;;;4955855;29;20508;-70
2022/04/19 09:30:25;;;;;;;12.55;5.93;;;11.30;72.40;;;;;;4955522;29;20051;-73
2022/04/19 09:33:06;;;;;;;18.10;5.82;;;11.40;72.20;;;;;;4954798;28;20058;-70
2022/04/19 09:35:37;;;;;;;10.95;5.53;;;11.50;71.40;;;;;;4954852;28;20048;-72
2022/04/19 09:38:06;;;;;;;12.93;5.80;;;11.60;71.30;;;;;;4937878;29;20050;-72
2022/04/19 09:40:42;;;;;;;10.05;5.10;;;11.60;70.30;;;;;;4938240;29;20049;-72
2022/04/19 09:43:23;;;;;;;10.73;5.47;;;11.70;70.30;;;;;;4955410;28;20060;-72
2022/04/19 09:45:56;;;;;;;13.13;5.47;;;11.80;70.20;;;;;;4953961;29;20055;-72
2022/04/19 09:48:25;;;;;;;;;;;11.80;69.80;;;;;;4955756;29;20043;-72
2022/04/19 09:50:57;;;;;;;11.60;4.32;;;12.00;70.30;;;;;;4955310;29;19923;-72
2022/04/19 09:53:29;;;;;;;15.35;5.03;;;12.10;70.10;;;;;;4953926;29;20508;-72
2022/04/19 09:55:58;;;;;;;11.05;4.15;;;12.30;68.70;;;;;;4953301;29;20513;-72
2022/04/19 09:58:27;;;;;;;9.18;4.63;;;12.30;68.70;;;;;;4955115;29;20497;-72
2022/04/19 10:00:54;;;;;;;8.93;4.00;;;12.30;67.80;;;;;;4954835;29;20051;-72
2022/04/19 10:08:57;;;;;;;7.43;3.47;;;12.80;65.30;;;;;;4954272;28;20065;-71
2022/04/19 10:11:28;;;;;;;10.77;3.58;;;12.90;64.70;;;;;;4953275;29;20059;-71
2022/04/19 10:13:57;;;;;;;7.63;3.55;;;13.00;64.60;;;;;;4953404;29;20051;-71
2022/04/19 10:16:28;;;;;;;8.23;3.78;;;13.10;63.70;;;;;;4937763;29;20409;-71
2022/04/19 10:18:56;;;;;;;10.20;3.70;;;13.20;62.80;;;;;;4953715;29;20047;-71
2022/04/19 10:21:27;;;;;;;11.25;3.90;;;13.30;62.30;;;;;;4953362;29;20047;-72
2022/04/19 10:24:15;;;;;;;10.82;3.78;;;13.60;62.50;;;;;;4954681;29;20047;-71
2022/04/19 10:26:48;;;;;;;6.63;3.20;;;13.80;61.60;;;;;;4954519;29;20066;-71
2022/04/19 10:29:20;;;;;;;10.45;3.33;;;13.80;60.70;;;;;;4954314;29;20058;-71
2022/04/19 10:32:01;;;;;;;13.90;3.60;;;13.80;59.90;;;;;;4953302;29;20370;-71
2022/04/19 10:34:32;;;;;;;9.40;3.35;;;13.60;60.20;;;;;;4953315;29;20497;-71
2022/04/19 10:37:15;;;;;;;9.68;3.25;;;13.40;60.50;;;;;;4953174;29;20054;-71
2022/04/19 10:39:59;;;;;;;7.60;3.05;;;13.50;60.80;;;;;;4953092;29;20054;-71
2022/04/19 10:42:34;;;;;;;6.07;2.55;;;13.60;60.60;;;;;;4954176;29;20043;-72
2022/04/19 10:45:14;;;;;;;7.10;2.67;;;13.60;60.30;;;;;;4952981;29;20043;-72
2022/04/19 10:47:51;;;;;;;6.32;2.30;;;13.70;59.80;;;;;;4954455;29;20044;-71
2022/04/19 10:50:29;;;;;;;9.90;2.38;;;13.60;58.60;;;;;;4953145;29;20062;-71
2022/04/19 10:52:59;;;;;;;8.98;2.10;;;13.40;57.60;;;;;;4956017;29;20405;-71
2022/04/19 10:55:28;;;;;;;5.95;2.20;;;13.30;58.10;;;;;;4969575;28;20051;-72
2022/04/19 11:00:41;;;;;;;5.18;1.98;;;13.50;58.30;;;;;;4953614;29;20063;-72
2022/04/19 11:03:29;;;;;;;5.57;1.88;;;13.60;57.70;;;;;;4954154;29;20043;-71
2022/04/19 11:05:58;;;;;;;10.73;1.98;;;13.70;56.70;;;;;;4953826;29;20481;-71
2022/04/19 11:08:25;;;;;;;7.35;2.00;;;13.80;56.00;;;;;;4953765;28;20059;-71
2022/04/19 11:10:56;;;;;;;4.53;1.90;;;13.80;56.20;;;;;;4953946;29;20508;-71
2022/04/19 11:13:34;;;;;;;8.15;2.30;;;13.80;55.80;;;;;;4954047;29;20047;-71
2022/04/19 11:16:05;;;;;;;5.13;1.90;;;13.80;55.90;;;;;;4954009;29;20051;-73
2022/04/19 11:18:37;;;;;;;9.27;1.95;;;13.90;55.60;;;;;;4951828;29;20055;-72
2022/04/19 11:21:52;;;;;;;6.65;2.03;;;14.00;55.60;;;;;;4968273;28;20063;-71
2022/04/19 11:24:59;;;;;;;7.50;2.00;;;14.10;55.10;;;;;;4979587;28;20057;-71
2022/04/19 11:27:54;;;;;;;7.70;2.38;;;14.10;55.00;;;;;;4946321;28;20054;-72
2022/04/19 11:30:24;;;;;;;5.68;2.13;;;14.10;54.40;;;;;;4977737;28;20520;-71
2022/04/19 11:32:55;;;;;;;7.97;2.53;;;14.00;54.20;;;;;;4978676;28;20058;-71
2022/04/19 11:35:23;;;;;;;5.38;2.20;;;14.10;53.90;;;;;;4960110;28;20050;-71
2022/04/19 11:37:50;;;;;;;4.68;2.05;;;14.20;53.80;;;;;;4960963;28;20050;-71
2022/04/19 11:48:48;;;;;;;7.40;2.00;;;14.80;52.50;;;;;;4979400;28;20404;-70
2022/04/19 11:51:20;;;;;;;5.85;2.45;;;15.10;52.30;;;;;;4979414;28;20057;-71
2022/04/19 11:53:50;;;;;;;6.82;2.45;;;15.40;51.90;;;;;;4978446;28;20531;-71
2022/04/19 11:56:18;;;;;;;6.05;2.10;;;15.60;51.00;;;;;;4961175;28;20054;-70
2022/04/19 11:58:52;;;;;;;3.08;1.70;;;15.40;50.60;;;;;;4978677;28;20050;-72
2022/04/19 12:01:20;;;;;;;12.98;1.98;;;15.20;50.60;;;;;;4978739;28;20050;-71
2022/04/19 12:03:48;;;;;;;6.97;1.90;;;14.90;51.20;;;;;;4977530;28;20055;-71
2022/04/19 12:06:18;;;;;;;6.57;1.95;;;14.80;51.80;;;;;;4978234;28;20046;-71
2022/04/19 12:08:50;;;;;;;7.05;2.08;;;14.60;51.40;;;;;;4960691;28;20047;-71
2022/04/19 12:11:26;;;;;;;8.13;2.35;;;14.50;51.50;;;;;;4961986;28;20061;-71
2022/04/19 12:13:54;;;;;;;5.88;1.90;;;14.40;51.70;;;;;;4978435;28;20385;-71
2022/04/19 12:16:35;;;;;;;6.00;1.95;;;14.40;51.80;;;;;;4961355;28;20065;-71
2022/04/19 12:19:07;;;;;;;6.60;1.90;;;14.50;51.50;;;;;;4978411;28;20043;-72
2022/04/19 12:21:44;;;;;;;6.10;1.90;;;14.60;51.20;;;;;;4945323;28;20401;-72
2022/04/19 12:24:21;;;;;;;4.07;1.58;;;14.60;50.70;;;;;;4978167;28;20300;-72
2022/04/19 12:27:05;;;;;;;7.90;1.63;;;14.60;50.80;;;;;;4959551;28;20069;-71
2022/04/19 12:29:53;;;;;;;3.20;1.75;;;14.50;50.70;;;;;;4960836;28;20270;-71
2022/04/19 12:32:21;;;;;;;7.40;2.40;;;14.40;51.10;;;;;;4936233;29;20047;-72
2022/04/19 12:34:48;;;;;;;5.03;1.85;;;14.30;51.30;;;;;;4955635;29;20401;-71
2022/04/19 12:37:21;;;;;;;10.40;2.50;;;14.20;51.60;;;;;;4956674;29;20058;-72
2022/04/19 12:39:59;;;;;;;6.45;2.15;;;14.20;51.70;;;;;;4956036;29;20058;-71
2022/04/19 12:42:27;;;;;;;5.10;1.90;;;14.10;51.70;;;;;;4957160;29;20051;-71
2022/04/19 12:45:08;;;;;;;5.15;2.08;;;14.00;52.00;;;;;;4939099;29;20051;-72
2022/04/19 12:47:37;;;;;;;4.70;1.95;;;13.90;52.00;;;;;;4938725;29;20039;-71
2022/04/19 12:50:13;;;;;;;5.22;1.83;;;13.90;52.20;;;;;;4938490;29;20066;-72
2022/04/19 12:52:42;;;;;;;4.28;1.55;;;13.80;52.10;;;;;;4939150;29;20051;-71
2022/04/19 12:55:10;;;;;;;4.07;1.95;;;13.80;52.20;;;;;;4954666;29;20052;-71
2022/04/19 12:57:40;;;;;;;6.30;2.10;;;13.80;51.80;;;;;;4937655;29;20493;-71
2022/04/19 13:00:09;;;;;;;7.82;1.77;;;13.80;52.10;;;;;;4938819;29;20066;-71
2022/04/19 13:02:40;;;;;;;5.10;1.70;;;13.80;52.30;;;;;;4956071;29;20047;-71
2022/04/19 13:05:07;;;;;;;5.78;1.85;;;13.80;52.20;;;;;;4955252;29;20395;-71
2022/04/19 13:13:08;;;;;;;8.23;2.30;;;13.60;52.30;;;;;;4938878;29;20062;-71
2022/04/19 13:15:36;;;;;;;6.18;1.98;;;13.60;52.50;;;;;;4955866;29;20084;-71
2022/04/19 13:18:05;;;;;;;11.65;2.38;;;13.60;52.80;;;;;;4955378;29;20055;-71
2022/04/19 13:20:33;;;;;;;3.30;2.20;;;13.60;52.90;;;;;;4933150;29;20060;-71
2022/04/19 13:23:03;;;;;;;6.38;2.28;;;13.50;52.80;;;;;;4919767;29;20398;-73
2022/04/19 13:25:31;;;;;;;6.22;2.50;;;13.50;52.70;;;;;;4936017;29;20059;-75
2022/04/19 13:27:58;;;;;;;5.70;2.22;;;13.50;52.50;;;;;;4936344;29;20051;-71
2022/04/19 13:30:28;;;;;;;8.60;2.42;;;13.50;52.40;;;;;;4919926;29;20050;-70
2022/04/19 13:32:55;;;;;;;7.32;1.98;;;13.40;52.50;;;;;;4919531;29;20052;-71
2022/04/19 13:35:23;;;;;;;6.28;1.85;;;13.40;52.50;;;;;;4919344;29;20063;-71
2022/04/19 13:40:37;;;;;;;3.97;1.65;;;13.40;53.00;;;;;;4919302;29;20502;-71
2022/04/19 13:43:05;;;;;;;5.95;1.70;;;13.50;53.00;;;;;;4936299;29;20048;-71
2022/04/19 13:45:33;;;;;;;4.65;1.75;;;13.60;52.70;;;;;;4918850;29;20067;-72
2022/04/19 13:48:01;;;;;;;4.82;1.80;;;13.70;52.60;;;;;;4919028;29;20055;-71
2022/04/19 13:50:29;;;;;;;7.20;1.80;;;13.70;52.40;;;;;;4936320;29;20052;-71
2022/04/19 13:52:56;;;;;;;5.70;1.92;;;13.80;52.10;;;;;;4936132;29;20059;-71
2022/04/19 13:55:24;;;;;;;9.75;2.25;;;13.80;52.00;;;;;;4918765;29;20485;-71